sensor_id;sensor_type;location;lat;lon;timestamp;P1;durP1;ratioP1;P2;durP2;ratioP2
74269;SDS011;62754;48.252;11.654;2023-04-02T00:02:24;0.85;;;0.25;;
74269;SDS011;62754;48.252;11.654;2023-04-02T00:07:38;0.75;;;0.20;;
74269;SDS011;62754;48.252;11.654;2023-04-02T00:10:23;1.75;;;0.40;;
74269;SDS011;62754;48.252;11.654;2023-04-02T00:15:37;1.25;;;0.30;;
74269;SDS011;62754;48.252;11.654;2023-04-02T00:18:05;0.75;;;0.30;;
74269;SDS011;62754;48.252;11.654;2023-04-02T00:20:39;0.82;;;0.25;;
74269;SDS011;62754;48.252;11.654;2023-04-02T00:23:10;0.50;;;0.20;;
74269;SDS011;62754;48.252;11.654;2023-04-02T00:25:39;0.85;;;0.15;;
74269;SDS011;62754;48.252;11.654;2023-04-02T00:28:21;3.00;;;0.35;;
74269;SDS011;62754;48.252;11.654;2023-04-02T00:30:53;0.90;;;0.30;;
74269;SDS011;62754;48.252;11.654;2023-04-02T00:33:23;1.90;;;0.60;;
74269;SDS011;62754;48.252;11.654;2023-04-02T00:35:54;1.83;;;0.52;;
74269;SDS011;62754;48.252;11.654;2023-04-02T00:40:57;1.50;;;0.32;;
74269;SDS011;62754;48.252;11.654;2023-04-02T00:43:27;0.75;;;0.20;;
74269;SDS011;62754;48.252;11.654;2023-04-02T00:45:57;3.40;;;0.30;;
74269;SDS011;62754;48.252;11.654;2023-04-02T00:50:58;1.65;;;0.30;;
74269;SDS011;62754;48.252;11.654;2023-04-02T00:53:36;1.15;;;0.20;;
74269;SDS011;62754;48.252;11.654;2023-04-02T00:56:11;0.50;;;0.30;;
74269;SDS011;62754;48.252;11.654;2023-04-02T00:58:51;0.75;;;0.20;;
74269;SDS011;62754;48.252;11.654;2023-04-02T01:01:22;0.70;;;0.25;;
74269;SDS011;62754;48.252;11.654;2023-04-02T01:03:56;0.90;;;0.22;;
74269;SDS011;62754;48.252;11.654;2023-04-02T01:06:23;0.63;;;0.20;;
74269;SDS011;62754;48.252;11.654;2023-04-02T01:11:58;1.02;;;0.20;;
74269;SDS011;62754;48.252;11.654;2023-04-02T01:17:51;0.70;;;0.20;;
74269;SDS011;62754;48.252;11.654;2023-04-02T01:23:02;0.68;;;0.20;;
74269;SDS011;62754;48.252;11.654;2023-04-02T01:25:37;1.92;;;0.20;;
74269;SDS011;62754;48.252;11.654;2023-04-02T01:34:05;0.90;;;0.30;;
74269;SDS011;62754;48.252;11.654;2023-04-02T01:36:35;1.05;;;0.40;;
74269;SDS011;62754;48.252;11.654;2023-04-02T01:39:25;0.73;;;0.22;;
74269;SDS011;62754;48.252;11.654;2023-04-02T01:44:50;0.88;;;0.17;;
74269;SDS011;62754;48.252;11.654;2023-04-02T01:47:21;0.80;;;0.20;;
74269;SDS011;62754;48.252;11.654;2023-04-02T01:49:51;0.82;;;0.30;;
74269;SDS011;62754;48.252;11.654;2023-04-02T01:55:45;0.30;;;0.10;;
74269;SDS011;62754;48.252;11.654;2023-04-02T01:58:13;1.27;;;0.20;;
74269;SDS011;62754;48.252;11.654;2023-04-02T02:00:48;1.95;;;0.20;;
74269;SDS011;62754;48.252;11.654;2023-04-02T02:03:18;0.73;;;0.20;;
74269;SDS011;62754;48.252;11.654;2023-04-02T02:05:44;2.65;;;0.50;;
74269;SDS011;62754;48.252;11.654;2023-04-02T02:11:02;0.55;;;0.20;;
74269;SDS011;62754;48.252;11.654;2023-04-02T02:13:29;1.15;;;0.30;;
74269;SDS011;62754;48.252;11.654;2023-04-02T02:15:56;3.38;;;0.52;;
74269;SDS011;62754;48.252;11.654;2023-04-02T02:18:23;0.90;;;0.28;;
74269;SDS011;62754;48.252;11.654;2023-04-02T02:20:53;2.75;;;0.60;;
74269;SDS011;62754;48.252;11.654;2023-04-02T02:23:23;1.08;;;0.40;;
74269;SDS011;62754;48.252;11.654;2023-04-02T02:25:52;1.20;;;0.30;;
74269;SDS011;62754;48.252;11.654;2023-04-02T02:28:29;1.20;;;0.40;;
74269;SDS011;62754;48.252;11.654;2023-04-02T02:31:11;0.82;;;0.30;;
74269;SDS011;62754;48.252;11.654;2023-04-02T02:33:46;0.52;;;0.20;;
74269;SDS011;62754;48.252;11.654;2023-04-02T02:36:19;1.20;;;0.20;;
74269;SDS011;62754;48.252;11.654;2023-04-02T02:43:54;3.60;;;1.10;;
74269;SDS011;62754;48.252;11.654;2023-04-02T02:46:24;2.50;;;0.50;;
74269;SDS011;62754;48.252;11.654;2023-04-02T02:48:54;0.60;;;0.13;;
74269;SDS011;62754;48.252;11.654;2023-04-02T02:51:44;1.38;;;0.28;;
74269;SDS011;62754;48.252;11.654;2023-04-02T02:54:26;0.47;;;0.30;;
74269;SDS011;62754;48.252;11.654;2023-04-02T02:56:56;1.83;;;0.25;;
74269;SDS011;62754;48.252;11.654;2023-04-02T02:59:28;1.80;;;0.40;;
74269;SDS011;62754;48.252;11.654;2023-04-02T03:01:55;0.98;;;0.30;;
74269;SDS011;62754;48.252;11.654;2023-04-02T03:04:25;1.33;;;0.30;;
74269;SDS011;62754;48.252;11.654;2023-04-02T03:06:54;0.75;;;0.30;;
74269;SDS011;62754;48.252;11.654;2023-04-02T03:12:07;0.95;;;0.40;;
74269;SDS011;62754;48.252;11.654;2023-04-02T03:17:13;0.95;;;0.30;;
74269;SDS011;62754;48.252;11.654;2023-04-02T03:19:43;1.27;;;0.30;;
74269;SDS011;62754;48.252;11.654;2023-04-02T03:25:32;1.30;;;0.40;;
74269;SDS011;62754;48.252;11.654;2023-04-02T03:28:06;0.47;;;0.30;;
74269;SDS011;62754;48.252;11.654;2023-04-02T03:30:42;1.73;;;0.30;;
74269;SDS011;62754;48.252;11.654;2023-04-02T03:33:13;1.33;;;0.40;;
74269;SDS011;62754;48.252;11.654;2023-04-02T03:35:56;1.73;;;0.20;;
74269;SDS011;62754;48.252;11.654;2023-04-02T03:38:29;0.57;;;0.30;;
74269;SDS011;62754;48.252;11.654;2023-04-02T03:41:06;2.05;;;0.45;;
74269;SDS011;62754;48.252;11.654;2023-04-02T03:43:48;3.13;;;0.30;;
74269;SDS011;62754;48.252;11.654;2023-04-02T03:49:08;0.82;;;0.32;;
74269;SDS011;62754;48.252;11.654;2023-04-02T03:54:24;1.10;;;0.30;;
74269;SDS011;62754;48.252;11.654;2023-04-02T03:56:50;0.77;;;0.20;;
74269;SDS011;62754;48.252;11.654;2023-04-02T04:04:50;1.05;;;0.35;;
74269;SDS011;62754;48.252;11.654;2023-04-02T04:07:27;1.65;;;0.30;;
74269;SDS011;62754;48.252;11.654;2023-04-02T04:09:56;1.75;;;0.35;;
74269;SDS011;62754;48.252;11.654;2023-04-02T04:12:26;0.55;;;0.20;;
74269;SDS011;62754;48.252;11.654;2023-04-02T04:20:27;0.55;;;0.30;;
74269;SDS011;62754;48.252;11.654;2023-04-02T04:23:09;0.75;;;0.28;;
74269;SDS011;62754;48.252;11.654;2023-04-02T04:25:41;0.95;;;0.28;;
74269;SDS011;62754;48.252;11.654;2023-04-02T04:33:13;1.20;;;0.30;;
74269;SDS011;62754;48.252;11.654;2023-04-02T04:35:47;1.58;;;0.40;;
74269;SDS011;62754;48.252;11.654;2023-04-02T04:38:24;0.68;;;0.20;;
74269;SDS011;62754;48.252;11.654;2023-04-02T04:40:56;0.70;;;0.30;;
74269;SDS011;62754;48.252;11.654;2023-04-02T04:43:29;0.90;;;0.30;;
74269;SDS011;62754;48.252;11.654;2023-04-02T04:46:21;1.02;;;0.32;;
74269;SDS011;62754;48.252;11.654;2023-04-02T04:57:50;0.85;;;0.20;;
74269;SDS011;62754;48.252;11.654;2023-04-02T05:00:29;0.57;;;0.20;;
74269;SDS011;62754;48.252;11.654;2023-04-02T05:03:10;0.73;;;0.30;;
74269;SDS011;62754;48.252;11.654;2023-04-02T05:05:38;0.57;;;0.20;;
74269;SDS011;62754;48.252;11.654;2023-04-02T05:08:12;1.00;;;0.30;;
74269;SDS011;62754;48.252;11.654;2023-04-02T05:16:50;0.88;;;0.30;;
74269;SDS011;62754;48.252;11.654;2023-04-02T05:19:39;0.98;;;0.32;;
74269;SDS011;62754;48.252;11.654;2023-04-02T05:24:52;0.90;;;0.20;;
74269;SDS011;62754;48.252;11.654;2023-04-02T05:32:39;1.00;;;0.35;;
74269;SDS011;62754;48.252;11.654;2023-04-02T05:35:17;0.98;;;0.40;;
74269;SDS011;62754;48.252;11.654;2023-04-02T05:37:51;0.70;;;0.30;;
74269;SDS011;62754;48.252;11.654;2023-04-02T05:40:22;1.15;;;0.30;;
74269;SDS011;62754;48.252;11.654;2023-04-02T05:42:55;0.82;;;0.30;;
74269;SDS011;62754;48.252;11.654;2023-04-02T05:47:57;1.30;;;0.30;;
74269;SDS011;62754;48.252;11.654;2023-04-02T05:50:34;1.10;;;0.30;;
74269;SDS011;62754;48.252;11.654;2023-04-02T06:01:14;1.60;;;0.40;;
74269;SDS011;62754;48.252;11.654;2023-04-02T06:09:45;1.40;;;0.20;;
74269;SDS011;62754;48.252;11.654;2023-04-02T06:12:22;1.38;;;0.25;;
74269;SDS011;62754;48.252;11.654;2023-04-02T06:14:54;1.63;;;0.40;;
74269;SDS011;62754;48.252;11.654;2023-04-02T06:17:22;1.65;;;0.20;;
74269;SDS011;62754;48.252;11.654;2023-04-02T06:19:48;0.77;;;0.30;;
74269;SDS011;62754;48.252;11.654;2023-04-02T06:25:32;0.80;;;0.20;;
74269;SDS011;62754;48.252;11.654;2023-04-02T06:28:05;2.35;;;0.25;;
74269;SDS011;62754;48.252;11.654;2023-04-02T06:30:38;1.67;;;0.35;;
74269;SDS011;62754;48.252;11.654;2023-04-02T06:33:07;0.90;;;0.30;;
74269;SDS011;62754;48.252;11.654;2023-04-02T06:35:39;0.90;;;0.30;;
74269;SDS011;62754;48.252;11.654;2023-04-02T06:38:11;1.60;;;0.60;;
74269;SDS011;62754;48.252;11.654;2023-04-02T06:40:45;1.88;;;0.30;;
74269;SDS011;62754;48.252;11.654;2023-04-02T06:45:45;0.80;;;0.40;;
74269;SDS011;62754;48.252;11.654;2023-04-02T06:48:16;1.88;;;0.47;;
74269;SDS011;62754;48.252;11.654;2023-04-02T06:50:47;1.33;;;0.40;;
74269;SDS011;62754;48.252;11.654;2023-04-02T06:53:20;1.17;;;0.30;;
74269;SDS011;62754;48.252;11.654;2023-04-02T06:58:31;0.73;;;0.30;;
74269;SDS011;62754;48.252;11.654;2023-04-02T07:01:02;1.67;;;0.30;;
74269;SDS011;62754;48.252;11.654;2023-04-02T07:03:31;0.98;;;0.32;;
74269;SDS011;62754;48.252;11.654;2023-04-02T07:06:01;2.60;;;1.05;;
74269;SDS011;62754;48.252;11.654;2023-04-02T07:08:27;1.00;;;0.30;;
74269;SDS011;62754;48.252;11.654;2023-04-02T07:10:53;2.03;;;0.50;;
74269;SDS011;62754;48.252;11.654;2023-04-02T07:13:22;1.73;;;0.70;;
74269;SDS011;62754;48.252;11.654;2023-04-02T07:15:49;2.00;;;0.40;;
74269;SDS011;62754;48.252;11.654;2023-04-02T07:18:30;5.32;;;0.50;;
74269;SDS011;62754;48.252;11.654;2023-04-02T07:20:57;2.47;;;0.40;;
74269;SDS011;62754;48.252;11.654;2023-04-02T07:23:25;1.60;;;0.47;;
74269;SDS011;62754;48.252;11.654;2023-04-02T07:25:54;2.17;;;0.40;;
74269;SDS011;62754;48.252;11.654;2023-04-02T07:28:20;1.90;;;0.60;;
74269;SDS011;62754;48.252;11.654;2023-04-02T07:30:46;2.88;;;1.10;;
74269;SDS011;62754;48.252;11.654;2023-04-02T07:33:15;3.78;;;0.50;;
74269;SDS011;62754;48.252;11.654;2023-04-02T07:35:42;2.47;;;0.40;;
74269;SDS011;62754;48.252;11.654;2023-04-02T07:38:08;2.40;;;0.50;;
74269;SDS011;62754;48.252;11.654;2023-04-02T07:40:35;0.80;;;0.40;;
74269;SDS011;62754;48.252;11.654;2023-04-02T07:43:03;1.88;;;0.68;;
74269;SDS011;62754;48.252;11.654;2023-04-02T07:45:32;1.15;;;0.50;;
74269;SDS011;62754;48.252;11.654;2023-04-02T07:48:03;4.20;;;1.33;;
74269;SDS011;62754;48.252;11.654;2023-04-02T07:50:32;3.13;;;1.10;;
74269;SDS011;62754;48.252;11.654;2023-04-02T07:52:58;2.25;;;0.57;;
74269;SDS011;62754;48.252;11.654;2023-04-02T07:55:27;2.00;;;0.57;;
74269;SDS011;62754;48.252;11.654;2023-04-02T07:57:56;2.33;;;0.63;;
74269;SDS011;62754;48.252;11.654;2023-04-02T08:00:26;1.05;;;0.40;;
74269;SDS011;62754;48.252;11.654;2023-04-02T08:02:57;1.80;;;0.70;;
74269;SDS011;62754;48.252;11.654;2023-04-02T08:05:23;7.93;;;1.67;;
74269;SDS011;62754;48.252;11.654;2023-04-02T08:07:56;1.58;;;0.50;;
74269;SDS011;62754;48.252;11.654;2023-04-02T08:10:27;1.27;;;0.50;;
74269;SDS011;62754;48.252;11.654;2023-04-02T08:12:53;1.15;;;0.30;;
74269;SDS011;62754;48.252;11.654;2023-04-02T08:15:18;1.52;;;0.43;;
74269;SDS011;62754;48.252;11.654;2023-04-02T08:17:46;1.05;;;0.50;;
74269;SDS011;62754;48.252;11.654;2023-04-02T08:20:19;3.17;;;0.80;;
74269;SDS011;62754;48.252;11.654;2023-04-02T08:22:47;2.88;;;0.50;;
74269;SDS011;62754;48.252;11.654;2023-04-02T08:25:13;1.75;;;0.50;;
74269;SDS011;62754;48.252;11.654;2023-04-02T08:27:44;3.67;;;0.50;;
74269;SDS011;62754;48.252;11.654;2023-04-02T08:30:14;1.42;;;0.45;;
74269;SDS011;62754;48.252;11.654;2023-04-02T08:32:41;1.67;;;0.80;;
74269;SDS011;62754;48.252;11.654;2023-04-02T08:35:07;3.60;;;0.65;;
74269;SDS011;62754;48.252;11.654;2023-04-02T08:37:37;2.80;;;0.60;;
74269;SDS011;62754;48.252;11.654;2023-04-02T08:40:05;2.22;;;0.65;;
74269;SDS011;62754;48.252;11.654;2023-04-02T08:42:49;1.65;;;0.70;;
74269;SDS011;62754;48.252;11.654;2023-04-02T08:48:07;2.17;;;0.60;;
74269;SDS011;62754;48.252;11.654;2023-04-02T08:50:39;1.77;;;0.68;;
74269;SDS011;62754;48.252;11.654;2023-04-02T08:53:14;1.27;;;0.40;;
74269;SDS011;62754;48.252;11.654;2023-04-02T08:55:58;1.05;;;0.40;;
74269;SDS011;62754;48.252;11.654;2023-04-02T09:04:19;1.27;;;0.57;;
74269;SDS011;62754;48.252;11.654;2023-04-02T09:06:47;0.55;;;0.35;;
74269;SDS011;62754;48.252;11.654;2023-04-02T09:09:14;1.90;;;0.55;;
74269;SDS011;62754;48.252;11.654;2023-04-02T09:11:44;1.35;;;0.50;;
74269;SDS011;62754;48.252;11.654;2023-04-02T09:14:42;2.25;;;0.50;;
74269;SDS011;62754;48.252;11.654;2023-04-02T09:17:31;1.13;;;0.47;;
74269;SDS011;62754;48.252;11.654;2023-04-02T09:22:25;1.08;;;0.40;;
74269;SDS011;62754;48.252;11.654;2023-04-02T09:24:56;1.13;;;0.40;;
74269;SDS011;62754;48.252;11.654;2023-04-02T09:27:26;2.75;;;0.50;;
74269;SDS011;62754;48.252;11.654;2023-04-02T09:29:55;1.75;;;0.43;;
74269;SDS011;62754;48.252;11.654;2023-04-02T09:32:36;1.77;;;0.50;;
74269;SDS011;62754;48.252;11.654;2023-04-02T09:35:05;1.08;;;0.40;;
74269;SDS011;62754;48.252;11.654;2023-04-02T09:37:33;0.80;;;0.30;;
74269;SDS011;62754;48.252;11.654;2023-04-02T09:42:46;2.00;;;0.50;;
74269;SDS011;62754;48.252;11.654;2023-04-02T09:45:23;2.95;;;0.45;;
74269;SDS011;62754;48.252;11.654;2023-04-02T09:47:49;2.00;;;0.98;;
74269;SDS011;62754;48.252;11.654;2023-04-02T09:52:45;1.17;;;0.30;;
74269;SDS011;62754;48.252;11.654;2023-04-02T09:57:44;1.35;;;0.38;;
74269;SDS011;62754;48.252;11.654;2023-04-02T10:00:22;2.67;;;0.35;;
74269;SDS011;62754;48.252;11.654;2023-04-02T10:03:03;0.95;;;0.20;;
74269;SDS011;62754;48.252;11.654;2023-04-02T10:05:32;2.63;;;0.40;;
74269;SDS011;62754;48.252;11.654;2023-04-02T10:08:05;2.75;;;0.60;;
74269;SDS011;62754;48.252;11.654;2023-04-02T10:16:26;0.75;;;0.20;;
74269;SDS011;62754;48.252;11.654;2023-04-02T10:19:01;1.20;;;0.38;;
74269;SDS011;62754;48.252;11.654;2023-04-02T10:21:45;2.40;;;1.15;;
74269;SDS011;62754;48.252;11.654;2023-04-02T10:24:15;1.05;;;0.40;;
74269;SDS011;62754;48.252;11.654;2023-04-02T10:32:36;1.40;;;0.30;;
74269;SDS011;62754;48.252;11.654;2023-04-02T10:40:34;0.70;;;0.20;;
74269;SDS011;62754;48.252;11.654;2023-04-02T10:48:57;1.83;;;0.77;;
74269;SDS011;62754;48.252;11.654;2023-04-02T10:52:13;1.83;;;0.60;;
74269;SDS011;62754;48.252;11.654;2023-04-02T10:54:40;1.98;;;0.90;;
74269;SDS011;62754;48.252;11.654;2023-04-02T10:59:52;0.90;;;0.52;;
74269;SDS011;62754;48.252;11.654;2023-04-02T11:02:41;1.65;;;0.70;;
74269;SDS011;62754;48.252;11.654;2023-04-02T11:11:04;1.65;;;0.60;;
74269;SDS011;62754;48.252;11.654;2023-04-02T11:16:11;1.88;;;0.60;;
74269;SDS011;62754;48.252;11.654;2023-04-02T11:18:37;1.90;;;0.73;;
74269;SDS011;62754;48.252;11.654;2023-04-02T11:24:00;1.25;;;0.63;;
74269;SDS011;62754;48.252;11.654;2023-04-02T11:26:31;1.75;;;0.60;;
74269;SDS011;62754;48.252;11.654;2023-04-02T11:29:19;3.63;;;1.45;;
74269;SDS011;62754;48.252;11.654;2023-04-02T11:31:47;1.67;;;0.80;;
74269;SDS011;62754;48.252;11.654;2023-04-02T11:34:56;2.13;;;0.95;;
74269;SDS011;62754;48.252;11.654;2023-04-02T11:37:09;1.98;;;0.80;;
74269;SDS011;62754;48.252;11.654;2023-04-02T11:50:29;2.25;;;0.73;;
74269;SDS011;62754;48.252;11.654;2023-04-02T11:53:02;1.92;;;0.60;;
74269;SDS011;62754;48.252;11.654;2023-04-02T11:55:31;2.35;;;1.30;;
74269;SDS011;62754;48.252;11.654;2023-04-02T12:11:55;2.45;;;1.50;;
74269;SDS011;62754;48.252;11.654;2023-04-02T12:17:03;1.95;;;1.33;;
74269;SDS011;62754;48.252;11.654;2023-04-02T12:19:40;1.95;;;0.70;;
74269;SDS011;62754;48.252;11.654;2023-04-02T12:22:45;1.40;;;0.70;;
74269;SDS011;62754;48.252;11.654;2023-04-02T12:27:45;3.67;;;1.13;;
74269;SDS011;62754;48.252;11.654;2023-04-02T12:30:20;2.35;;;1.25;;
74269;SDS011;62754;48.252;11.654;2023-04-02T12:32:47;2.00;;;1.00;;
74269;SDS011;62754;48.252;11.654;2023-04-02T12:35:23;3.40;;;1.10;;
74269;SDS011;62754;48.252;11.654;2023-04-02T12:37:53;2.38;;;0.85;;
74269;SDS011;62754;48.252;11.654;2023-04-02T12:40:19;1.10;;;0.75;;
74269;SDS011;62754;48.252;11.654;2023-04-02T12:42:45;1.40;;;0.70;;
74269;SDS011;62754;48.252;11.654;2023-04-02T12:45:23;2.97;;;1.20;;
74269;SDS011;62754;48.252;11.654;2023-04-02T12:47:54;4.95;;;0.80;;
74269;SDS011;62754;48.252;11.654;2023-04-02T12:50:24;1.52;;;0.60;;
74269;SDS011;62754;48.252;11.654;2023-04-02T12:52:53;1.25;;;0.70;;
74269;SDS011;62754;48.252;11.654;2023-04-02T12:55:20;1.58;;;0.95;;
74269;SDS011;62754;48.252;11.654;2023-04-02T12:57:53;2.28;;;1.30;;
74269;SDS011;62754;48.252;11.654;2023-04-02T13:02:49;2.25;;;1.38;;
74269;SDS011;62754;48.252;11.654;2023-04-02T13:08:03;1.80;;;0.85;;
74269;SDS011;62754;48.252;11.654;2023-04-02T13:10:29;3.35;;;1.60;;
74269;SDS011;62754;48.252;11.654;2023-04-02T13:12:57;2.13;;;1.13;;
74269;SDS011;62754;48.252;11.654;2023-04-02T13:15:29;2.28;;;1.30;;
74269;SDS011;62754;48.252;11.654;2023-04-02T13:25:56;2.78;;;1.60;;
74269;SDS011;62754;48.252;11.654;2023-04-02T13:28:22;3.15;;;1.23;;
74269;SDS011;62754;48.252;11.654;2023-04-02T13:30:48;2.20;;;1.00;;
74269;SDS011;62754;48.252;11.654;2023-04-02T13:33:14;1.60;;;1.00;;
74269;SDS011;62754;48.252;11.654;2023-04-02T13:35:45;2.00;;;1.10;;
74269;SDS011;62754;48.252;11.654;2023-04-02T13:38:13;2.70;;;1.27;;
74269;SDS011;62754;48.252;11.654;2023-04-02T13:40:39;2.38;;;0.90;;
74269;SDS011;62754;48.252;11.654;2023-04-02T13:43:09;3.75;;;1.10;;
74269;SDS011;62754;48.252;11.654;2023-04-02T13:45:41;3.15;;;1.10;;
74269;SDS011;62754;48.252;11.654;2023-04-02T13:48:13;3.50;;;1.60;;
74269;SDS011;62754;48.252;11.654;2023-04-02T13:50:40;1.67;;;0.80;;
74269;SDS011;62754;48.252;11.654;2023-04-02T13:53:12;1.95;;;0.85;;
74269;SDS011;62754;48.252;11.654;2023-04-02T13:55:44;1.85;;;0.80;;
74269;SDS011;62754;48.252;11.654;2023-04-02T13:58:10;2.05;;;0.80;;
74269;SDS011;62754;48.252;11.654;2023-04-02T14:00:38;1.40;;;0.75;;
74269;SDS011;62754;48.252;11.654;2023-04-02T14:03:09;0.20;;;0.10;;
74269;SDS011;62754;48.252;11.654;2023-04-02T14:05:42;0.35;;;0.17;;
74269;SDS011;62754;48.252;11.654;2023-04-02T14:13:44;0.50;;;0.20;;
74269;SDS011;62754;48.252;11.654;2023-04-02T14:35:46;2.10;;;0.60;;
74269;SDS011;62754;48.252;11.654;2023-04-02T14:38:20;2.15;;;0.60;;
74269;SDS011;62754;48.252;11.654;2023-04-02T14:40:50;2.72;;;0.50;;
74269;SDS011;62754;48.252;11.654;2023-04-02T14:46:04;1.48;;;0.70;;
74269;SDS011;62754;48.252;11.654;2023-04-02T14:48:43;1.00;;;0.50;;
74269;SDS011;62754;48.252;11.654;2023-04-02T15:02:16;1.80;;;0.75;;
74269;SDS011;62754;48.252;11.654;2023-04-02T15:04:57;1.73;;;0.60;;
74269;SDS011;62754;48.252;11.654;2023-04-02T15:07:27;1.40;;;0.50;;
74269;SDS011;62754;48.252;11.654;2023-04-02T15:12:52;0.93;;;0.50;;
74269;SDS011;62754;48.252;11.654;2023-04-02T15:18:16;1.75;;;0.70;;
74269;SDS011;62754;48.252;11.654;2023-04-02T15:20:45;1.38;;;0.65;;
74269;SDS011;62754;48.252;11.654;2023-04-02T15:43:03;3.03;;;1.48;;
74269;SDS011;62754;48.252;11.654;2023-04-02T15:45:50;2.08;;;1.17;;
74269;SDS011;62754;48.252;11.654;2023-04-02T15:48:20;2.50;;;1.30;;
74269;SDS011;62754;48.252;11.654;2023-04-02T15:51:24;2.70;;;1.30;;
74269;SDS011;62754;48.252;11.654;2023-04-02T16:10:20;3.22;;;1.75;;
74269;SDS011;62754;48.252;11.654;2023-04-02T16:12:51;3.22;;;1.50;;
74269;SDS011;62754;48.252;11.654;2023-04-02T16:17:56;2.72;;;1.67;;
74269;SDS011;62754;48.252;11.654;2023-04-02T16:20:30;2.78;;;1.90;;
74269;SDS011;62754;48.252;11.654;2023-04-02T16:23:04;3.55;;;1.85;;
74269;SDS011;62754;48.252;11.654;2023-04-02T16:28:33;3.42;;;2.20;;
74269;SDS011;62754;48.252;11.654;2023-04-02T16:49:58;3.35;;;2.28;;
74269;SDS011;62754;48.252;11.654;2023-04-02T17:00:55;3.72;;;2.28;;
74269;SDS011;62754;48.252;11.654;2023-04-02T17:03:46;3.30;;;2.10;;
74269;SDS011;62754;48.252;11.654;2023-04-02T17:09:15;3.20;;;2.20;;
74269;SDS011;62754;48.252;11.654;2023-04-02T17:14:22;3.47;;;2.15;;
74269;SDS011;62754;48.252;11.654;2023-04-02T17:17:04;2.60;;;1.95;;
74269;SDS011;62754;48.252;11.654;2023-04-02T17:19:32;3.20;;;2.30;;
74269;SDS011;62754;48.252;11.654;2023-04-02T17:22:01;3.60;;;2.35;;
74269;SDS011;62754;48.252;11.654;2023-04-02T17:24:29;3.67;;;2.60;;
74269;SDS011;62754;48.252;11.654;2023-04-02T17:29:39;3.33;;;2.58;;
74269;SDS011;62754;48.252;11.654;2023-04-02T17:32:15;4.28;;;2.80;;
74269;SDS011;62754;48.252;11.654;2023-04-02T17:34:46;3.95;;;2.85;;
74269;SDS011;62754;48.252;11.654;2023-04-02T17:37:28;4.60;;;3.38;;
74269;SDS011;62754;48.252;11.654;2023-04-02T17:53:28;3.90;;;3.13;;
74269;SDS011;62754;48.252;11.654;2023-04-02T17:56:38;4.25;;;3.08;;
74269;SDS011;62754;48.252;11.654;2023-04-02T18:01:41;5.05;;;3.90;;
74269;SDS011;62754;48.252;11.654;2023-04-02T18:10:01;4.70;;;3.40;;
74269;SDS011;62754;48.252;11.654;2023-04-02T18:17:52;6.85;;;4.47;;
74269;SDS011;62754;48.252;11.654;2023-04-02T18:23:15;7.55;;;4.25;;
74269;SDS011;62754;48.252;11.654;2023-04-02T18:28:37;7.45;;;3.63;;
74269;SDS011;62754;48.252;11.654;2023-04-02T18:37:37;4.95;;;3.75;;
74269;SDS011;62754;48.252;11.654;2023-04-02T18:40:29;5.25;;;3.28;;
74269;SDS011;62754;48.252;11.654;2023-04-02T18:51:21;5.30;;;4.13;;
74269;SDS011;62754;48.252;11.654;2023-04-02T18:53:50;5.97;;;4.10;;
74269;SDS011;62754;48.252;11.654;2023-04-02T18:56:27;5.95;;;3.72;;
74269;SDS011;62754;48.252;11.654;2023-04-02T18:59:29;5.22;;;3.45;;
74269;SDS011;62754;48.252;11.654;2023-04-02T19:01:56;4.38;;;3.10;;
74269;SDS011;62754;48.252;11.654;2023-04-02T19:04:31;5.78;;;3.70;;
74269;SDS011;62754;48.252;11.654;2023-04-02T19:07:04;5.68;;;3.90;;
74269;SDS011;62754;48.252;11.654;2023-04-02T19:09:37;6.95;;;4.75;;
74269;SDS011;62754;48.252;11.654;2023-04-02T19:12:17;6.82;;;4.85;;
74269;SDS011;62754;48.252;11.654;2023-04-02T19:14:45;8.13;;;5.07;;
74269;SDS011;62754;48.252;11.654;2023-04-02T19:22:41;7.43;;;4.80;;
74269;SDS011;62754;48.252;11.654;2023-04-02T19:25:16;6.68;;;4.63;;
74269;SDS011;62754;48.252;11.654;2023-04-02T19:30:50;5.97;;;3.95;;
74269;SDS011;62754;48.252;11.654;2023-04-02T19:41:39;5.53;;;3.92;;
74269;SDS011;62754;48.252;11.654;2023-04-02T19:44:12;6.78;;;4.03;;
74269;SDS011;62754;48.252;11.654;2023-04-02T19:46:44;5.22;;;3.72;;
74269;SDS011;62754;48.252;11.654;2023-04-02T19:49:13;5.60;;;3.63;;
74269;SDS011;62754;48.252;11.654;2023-04-02T19:51:52;7.28;;;4.20;;
74269;SDS011;62754;48.252;11.654;2023-04-02T19:56:46;6.20;;;4.00;;
74269;SDS011;62754;48.252;11.654;2023-04-02T19:59:12;6.72;;;3.78;;
74269;SDS011;62754;48.252;11.654;2023-04-02T20:01:40;6.32;;;3.95;;
74269;SDS011;62754;48.252;11.654;2023-04-02T20:04:06;5.43;;;4.00;;
74269;SDS011;62754;48.252;11.654;2023-04-02T20:06:32;7.57;;;4.93;;
74269;SDS011;62754;48.252;11.654;2023-04-02T20:09:00;7.30;;;4.15;;
74269;SDS011;62754;48.252;11.654;2023-04-02T20:11:30;6.10;;;3.47;;
74269;SDS011;62754;48.252;11.654;2023-04-02T20:13:59;6.90;;;3.97;;
74269;SDS011;62754;48.252;11.654;2023-04-02T20:16:28;5.78;;;3.88;;
74269;SDS011;62754;48.252;11.654;2023-04-02T20:18:54;5.70;;;3.78;;
74269;SDS011;62754;48.252;11.654;2023-04-02T20:21:19;6.10;;;3.67;;
74269;SDS011;62754;48.252;11.654;2023-04-02T20:23:51;4.93;;;3.45;;
74269;SDS011;62754;48.252;11.654;2023-04-02T20:26:17;6.25;;;4.18;;
74269;SDS011;62754;48.252;11.654;2023-04-02T20:28:43;6.55;;;4.15;;
74269;SDS011;62754;48.252;11.654;2023-04-02T20:31:12;6.53;;;3.72;;
74269;SDS011;62754;48.252;11.654;2023-04-02T20:33:41;6.18;;;3.92;;
74269;SDS011;62754;48.252;11.654;2023-04-02T20:36:10;6.47;;;4.40;;
74269;SDS011;62754;48.252;11.654;2023-04-02T20:38:40;6.22;;;3.95;;
74269;SDS011;62754;48.252;11.654;2023-04-02T20:41:06;6.65;;;4.30;;
74269;SDS011;62754;48.252;11.654;2023-04-02T20:43:35;6.60;;;4.45;;
74269;SDS011;62754;48.252;11.654;2023-04-02T20:46:02;6.82;;;4.15;;
74269;SDS011;62754;48.252;11.654;2023-04-02T20:48:29;8.25;;;4.85;;
74269;SDS011;62754;48.252;11.654;2023-04-02T20:50:59;7.75;;;4.50;;
74269;SDS011;62754;48.252;11.654;2023-04-02T20:53:31;7.20;;;4.68;;
74269;SDS011;62754;48.252;11.654;2023-04-02T20:56:01;7.25;;;4.25;;
74269;SDS011;62754;48.252;11.654;2023-04-02T20:58:27;7.53;;;4.10;;
74269;SDS011;62754;48.252;11.654;2023-04-02T21:00:53;6.78;;;4.07;;
74269;SDS011;62754;48.252;11.654;2023-04-02T21:03:19;7.35;;;4.40;;
74269;SDS011;62754;48.252;11.654;2023-04-02T21:05:45;8.10;;;4.57;;
74269;SDS011;62754;48.252;11.654;2023-04-02T21:08:14;6.55;;;3.90;;
74269;SDS011;62754;48.252;11.654;2023-04-02T21:10:40;7.68;;;4.65;;
74269;SDS011;62754;48.252;11.654;2023-04-02T21:13:06;8.18;;;4.40;;
74269;SDS011;62754;48.252;11.654;2023-04-02T21:15:31;7.43;;;4.95;;
74269;SDS011;62754;48.252;11.654;2023-04-02T21:18:00;7.60;;;4.53;;
74269;SDS011;62754;48.252;11.654;2023-04-02T21:20:28;7.65;;;4.80;;
74269;SDS011;62754;48.252;11.654;2023-04-02T21:22:53;7.53;;;4.55;;
74269;SDS011;62754;48.252;11.654;2023-04-02T21:25:19;7.50;;;4.97;;
74269;SDS011;62754;48.252;11.654;2023-04-02T21:27:47;8.13;;;5.30;;
74269;SDS011;62754;48.252;11.654;2023-04-02T21:30:16;8.70;;;5.20;;
74269;SDS011;62754;48.252;11.654;2023-04-02T21:32:41;9.95;;;5.85;;
74269;SDS011;62754;48.252;11.654;2023-04-02T21:35:09;7.35;;;4.72;;
74269;SDS011;62754;48.252;11.654;2023-04-02T21:37:35;7.78;;;4.95;;
74269;SDS011;62754;48.252;11.654;2023-04-02T21:40:06;9.57;;;5.20;;
74269;SDS011;62754;48.252;11.654;2023-04-02T21:42:32;10.82;;;5.18;;
74269;SDS011;62754;48.252;11.654;2023-04-02T21:44:58;11.48;;;5.30;;
74269;SDS011;62754;48.252;11.654;2023-04-02T21:49:56;9.80;;;5.47;;